sensor_id;sensor_type;location;lat;lon;timestamp;P1;durP1;ratioP1;P2;durP2;ratioP2
83719;SDS011;73702;49.668;8.544;2024-03-22T00:00:24;32.33;;;10.02;;
83719;SDS011;73702;49.668;8.544;2024-03-22T00:02:50;30.75;;;9.68;;
83719;SDS011;73702;49.668;8.544;2024-03-22T00:05:15;26.30;;;9.63;;
83719;SDS011;73702;49.668;8.544;2024-03-22T00:07:40;24.38;;;10.68;;
83719;SDS011;73702;49.668;8.544;2024-03-22T00:10:06;33.22;;;10.55;;
83719;SDS011;73702;49.668;8.544;2024-03-22T00:12:32;24.80;;;10.32;;
83719;SDS011;73702;49.668;8.544;2024-03-22T00:14:57;28.73;;;10.85;;
83719;SDS011;73702;49.668;8.544;2024-03-22T00:17:22;31.50;;;9.18;;
83719;SDS011;73702;49.668;8.544;2024-03-22T00:19:48;26.92;;;8.07;;
83719;SDS011;73702;49.668;8.544;2024-03-22T00:22:13;28.60;;;6.95;;
83719;SDS011;73702;49.668;8.544;2024-03-22T00:24:38;31.58;;;9.18;;
83719;SDS011;73702;49.668;8.544;2024-03-22T00:27:04;36.38;;;11.73;;
83719;SDS011;73702;49.668;8.544;2024-03-22T00:29:29;25.60;;;9.32;;
83719;SDS011;73702;49.668;8.544;2024-03-22T00:31:54;23.08;;;7.68;;
83719;SDS011;73702;49.668;8.544;2024-03-22T00:34:20;24.23;;;7.75;;
83719;SDS011;73702;49.668;8.544;2024-03-22T00:36:45;24.88;;;6.22;;
83719;SDS011;73702;49.668;8.544;2024-03-22T00:39:11;30.92;;;7.22;;
83719;SDS011;73702;49.668;8.544;2024-03-22T00:41:36;18.60;;;6.53;;
83719;SDS011;73702;49.668;8.544;2024-03-22T00:44:02;23.33;;;6.93;;
83719;SDS011;73702;49.668;8.544;2024-03-22T00:46:27;27.38;;;7.47;;
83719;SDS011;73702;49.668;8.544;2024-03-22T00:48:53;22.85;;;6.25;;
83719;SDS011;73702;49.668;8.544;2024-03-22T00:51:18;29.38;;;7.00;;
83719;SDS011;73702;49.668;8.544;2024-03-22T00:53:44;21.92;;;6.78;;
83719;SDS011;73702;49.668;8.544;2024-03-22T00:56:09;25.60;;;6.90;;
83719;SDS011;73702;49.668;8.544;2024-03-22T00:58:34;22.17;;;7.38;;
83719;SDS011;73702;49.668;8.544;2024-03-22T01:01:00;27.95;;;7.78;;
83719;SDS011;73702;49.668;8.544;2024-03-22T01:03:25;31.95;;;8.93;;
83719;SDS011;73702;49.668;8.544;2024-03-22T01:05:50;24.52;;;7.00;;
83719;SDS011;73702;49.668;8.544;2024-03-22T01:08:16;30.13;;;7.35;;
83719;SDS011;73702;49.668;8.544;2024-03-22T01:10:41;22.08;;;6.85;;
83719;SDS011;73702;49.668;8.544;2024-03-22T01:13:07;29.38;;;7.45;;
83719;SDS011;73702;49.668;8.544;2024-03-22T01:15:32;23.00;;;7.05;;
83719;SDS011;73702;49.668;8.544;2024-03-22T01:17:57;24.67;;;7.35;;
83719;SDS011;73702;49.668;8.544;2024-03-22T01:20:23;24.55;;;7.32;;
83719;SDS011;73702;49.668;8.544;2024-03-22T01:22:48;20.55;;;6.78;;
83719;SDS011;73702;49.668;8.544;2024-03-22T01:25:14;30.50;;;7.18;;
83719;SDS011;73702;49.668;8.544;2024-03-22T01:27:39;21.52;;;6.38;;
83719;SDS011;73702;49.668;8.544;2024-03-22T01:30:05;28.52;;;7.70;;
83719;SDS011;73702;49.668;8.544;2024-03-22T01:32:30;26.58;;;7.82;;
83719;SDS011;73702;49.668;8.544;2024-03-22T01:34:56;23.75;;;6.40;;
83719;SDS011;73702;49.668;8.544;2024-03-22T01:37:22;23.60;;;6.88;;
83719;SDS011;73702;49.668;8.544;2024-03-22T01:39:47;24.23;;;6.78;;
83719;SDS011;73702;49.668;8.544;2024-03-22T01:42:13;28.02;;;6.75;;
83719;SDS011;73702;49.668;8.544;2024-03-22T01:44:38;19.15;;;5.75;;
83719;SDS011;73702;49.668;8.544;2024-03-22T01:47:03;25.48;;;7.45;;
83719;SDS011;73702;49.668;8.544;2024-03-22T01:49:29;24.73;;;7.30;;
83719;SDS011;73702;49.668;8.544;2024-03-22T01:51:55;25.25;;;7.28;;
83719;SDS011;73702;49.668;8.544;2024-03-22T01:54:20;31.92;;;7.32;;
83719;SDS011;73702;49.668;8.544;2024-03-22T01:56:46;19.98;;;6.38;;
83719;SDS011;73702;49.668;8.544;2024-03-22T01:59:12;30.00;;;7.15;;
83719;SDS011;73702;49.668;8.544;2024-03-22T02:01:38;26.60;;;6.70;;
83719;SDS011;73702;49.668;8.544;2024-03-22T02:04:03;21.30;;;6.10;;
83719;SDS011;73702;49.668;8.544;2024-03-22T02:06:29;20.38;;;6.25;;
83719;SDS011;73702;49.668;8.544;2024-03-22T02:08:54;22.85;;;6.50;;
83719;SDS011;73702;49.668;8.544;2024-03-22T02:11:20;28.13;;;6.90;;
83719;SDS011;73702;49.668;8.544;2024-03-22T02:13:46;23.13;;;6.82;;
83719;SDS011;73702;49.668;8.544;2024-03-22T02:16:11;35.22;;;7.57;;
83719;SDS011;73702;49.668;8.544;2024-03-22T02:18:37;31.63;;;7.35;;
83719;SDS011;73702;49.668;8.544;2024-03-22T02:21:02;23.15;;;6.40;;
83719;SDS011;73702;49.668;8.544;2024-03-22T02:23:32;28.98;;;7.43;;
83719;SDS011;73702;49.668;8.544;2024-03-22T02:25:58;20.88;;;6.55;;
83719;SDS011;73702;49.668;8.544;2024-03-22T02:28:23;34.65;;;7.82;;
83719;SDS011;73702;49.668;8.544;2024-03-22T02:30:49;24.65;;;7.05;;
83719;SDS011;73702;49.668;8.544;2024-03-22T02:33:14;31.95;;;7.60;;
83719;SDS011;73702;49.668;8.544;2024-03-22T02:35:39;23.02;;;7.10;;
83719;SDS011;73702;49.668;8.544;2024-03-22T02:38:05;22.60;;;6.32;;
83719;SDS011;73702;49.668;8.544;2024-03-22T02:40:30;24.38;;;7.07;;
83719;SDS011;73702;49.668;8.544;2024-03-22T02:42:55;20.75;;;6.97;;
83719;SDS011;73702;49.668;8.544;2024-03-22T02:45:21;37.95;;;8.38;;
83719;SDS011;73702;49.668;8.544;2024-03-22T02:47:47;23.80;;;7.00;;
83719;SDS011;73702;49.668;8.544;2024-03-22T02:50:12;30.00;;;7.55;;
83719;SDS011;73702;49.668;8.544;2024-03-22T02:52:37;26.40;;;8.70;;
83719;SDS011;73702;49.668;8.544;2024-03-22T02:55:03;25.42;;;8.07;;
83719;SDS011;73702;49.668;8.544;2024-03-22T02:57:28;23.35;;;7.15;;
83719;SDS011;73702;49.668;8.544;2024-03-22T02:59:54;28.35;;;8.07;;
83719;SDS011;73702;49.668;8.544;2024-03-22T03:02:19;38.28;;;9.10;;
83719;SDS011;73702;49.668;8.544;2024-03-22T03:04:44;24.13;;;7.50;;
83719;SDS011;73702;49.668;8.544;2024-03-22T03:07:10;34.05;;;7.70;;
83719;SDS011;73702;49.668;8.544;2024-03-22T03:09:36;25.63;;;8.30;;
83719;SDS011;73702;49.668;8.544;2024-03-22T03:12:01;27.65;;;7.65;;
83719;SDS011;73702;49.668;8.544;2024-03-22T03:14:27;35.33;;;8.55;;
83719;SDS011;73702;49.668;8.544;2024-03-22T03:16:52;23.73;;;7.57;;
83719;SDS011;73702;49.668;8.544;2024-03-22T03:19:17;34.42;;;8.48;;
83719;SDS011;73702;49.668;8.544;2024-03-22T03:21:43;20.88;;;7.78;;
83719;SDS011;73702;49.668;8.544;2024-03-22T03:24:08;22.30;;;7.30;;
83719;SDS011;73702;49.668;8.544;2024-03-22T03:26:34;26.73;;;7.45;;
83719;SDS011;73702;49.668;8.544;2024-03-22T03:28:59;27.52;;;7.60;;
83719;SDS011;73702;49.668;8.544;2024-03-22T03:31:24;31.00;;;8.60;;
83719;SDS011;73702;49.668;8.544;2024-03-22T03:33:50;23.00;;;7.25;;
83719;SDS011;73702;49.668;8.544;2024-03-22T03:36:15;28.55;;;8.25;;
83719;SDS011;73702;49.668;8.544;2024-03-22T03:38:40;23.33;;;7.60;;
83719;SDS011;73702;49.668;8.544;2024-03-22T03:41:06;23.77;;;7.53;;
83719;SDS011;73702;49.668;8.544;2024-03-22T03:43:31;31.95;;;8.45;;
83719;SDS011;73702;49.668;8.544;2024-03-22T03:45:56;22.45;;;7.68;;
83719;SDS011;73702;49.668;8.544;2024-03-22T03:48:22;31.92;;;7.70;;
83719;SDS011;73702;49.668;8.544;2024-03-22T03:50:52;27.90;;;8.00;;
83719;SDS011;73702;49.668;8.544;2024-03-22T03:53:17;30.90;;;8.63;;
83719;SDS011;73702;49.668;8.544;2024-03-22T03:55:43;24.73;;;7.60;;
83719;SDS011;73702;49.668;8.544;2024-03-22T03:58:08;28.30;;;7.78;;
83719;SDS011;73702;49.668;8.544;2024-03-22T04:00:33;27.30;;;7.60;;
83719;SDS011;73702;49.668;8.544;2024-03-22T04:02:59;23.48;;;7.10;;
83719;SDS011;73702;49.668;8.544;2024-03-22T04:05:24;27.58;;;8.13;;
83719;SDS011;73702;49.668;8.544;2024-03-22T04:07:49;27.95;;;8.05;;
83719;SDS011;73702;49.668;8.544;2024-03-22T04:10:15;26.73;;;7.88;;
83719;SDS011;73702;49.668;8.544;2024-03-22T04:12:40;28.95;;;8.43;;
83719;SDS011;73702;49.668;8.544;2024-03-22T04:15:06;31.55;;;8.57;;
83719;SDS011;73702;49.668;8.544;2024-03-22T04:17:31;27.92;;;8.10;;
83719;SDS011;73702;49.668;8.544;2024-03-22T04:19:57;28.60;;;8.35;;
83719;SDS011;73702;49.668;8.544;2024-03-22T04:22:22;31.85;;;8.48;;
83719;SDS011;73702;49.668;8.544;2024-03-22T04:24:48;25.58;;;8.13;;
83719;SDS011;73702;49.668;8.544;2024-03-22T04:27:13;32.05;;;8.52;;
83719;SDS011;73702;49.668;8.544;2024-03-22T04:29:39;36.67;;;9.15;;
83719;SDS011;73702;49.668;8.544;2024-03-22T04:32:04;23.40;;;8.73;;
83719;SDS011;73702;49.668;8.544;2024-03-22T04:34:29;32.35;;;8.70;;
83719;SDS011;73702;49.668;8.544;2024-03-22T04:36:55;22.88;;;8.07;;
83719;SDS011;73702;49.668;8.544;2024-03-22T04:39:21;30.42;;;8.45;;
83719;SDS011;73702;49.668;8.544;2024-03-22T04:41:47;26.77;;;8.95;;
83719;SDS011;73702;49.668;8.544;2024-03-22T04:44:12;34.85;;;8.80;;
83719;SDS011;73702;49.668;8.544;2024-03-22T04:46:37;38.95;;;9.43;;
83719;SDS011;73702;49.668;8.544;2024-03-22T04:49:03;29.00;;;8.98;;
83719;SDS011;73702;49.668;8.544;2024-03-22T04:51:28;36.55;;;9.27;;
83719;SDS011;73702;49.668;8.544;2024-03-22T04:53:54;23.88;;;8.35;;
83719;SDS011;73702;49.668;8.544;2024-03-22T04:56:19;31.50;;;9.13;;
83719;SDS011;73702;49.668;8.544;2024-03-22T04:58:44;28.55;;;9.35;;
83719;SDS011;73702;49.668;8.544;2024-03-22T05:01:10;37.05;;;10.60;;
83719;SDS011;73702;49.668;8.544;2024-03-22T05:03:35;39.38;;;9.60;;
83719;SDS011;73702;49.668;8.544;2024-03-22T05:06:00;34.70;;;9.52;;
83719;SDS011;73702;49.668;8.544;2024-03-22T05:08:26;32.70;;;9.60;;
83719;SDS011;73702;49.668;8.544;2024-03-22T05:10:52;27.20;;;8.45;;
83719;SDS011;73702;49.668;8.544;2024-03-22T05:13:17;32.05;;;9.23;;
83719;SDS011;73702;49.668;8.544;2024-03-22T05:15:43;22.25;;;7.85;;
83719;SDS011;73702;49.668;8.544;2024-03-22T05:18:08;29.90;;;8.68;;
83719;SDS011;73702;49.668;8.544;2024-03-22T05:20:34;35.30;;;9.18;;
83719;SDS011;73702;49.668;8.544;2024-03-22T05:22:59;28.42;;;8.88;;
83719;SDS011;73702;49.668;8.544;2024-03-22T05:25:24;33.88;;;8.55;;
83719;SDS011;73702;49.668;8.544;2024-03-22T05:27:50;32.50;;;8.80;;
83719;SDS011;73702;49.668;8.544;2024-03-22T05:30:15;30.67;;;8.40;;
83719;SDS011;73702;49.668;8.544;2024-03-22T05:32:40;39.25;;;9.27;;
83719;SDS011;73702;49.668;8.544;2024-03-22T05:35:06;24.77;;;8.35;;
83719;SDS011;73702;49.668;8.544;2024-03-22T05:37:32;38.13;;;9.00;;
83719;SDS011;73702;49.668;8.544;2024-03-22T05:39:57;25.38;;;8.73;;
83719;SDS011;73702;49.668;8.544;2024-03-22T05:42:22;33.75;;;9.05;;
83719;SDS011;73702;49.668;8.544;2024-03-22T05:44:48;24.45;;;8.48;;
83719;SDS011;73702;49.668;8.544;2024-03-22T05:47:13;29.77;;;8.45;;
83719;SDS011;73702;49.668;8.544;2024-03-22T05:49:39;38.80;;;9.48;;
83719;SDS011;73702;49.668;8.544;2024-03-22T05:52:04;23.85;;;7.82;;
83719;SDS011;73702;49.668;8.544;2024-03-22T05:54:30;28.10;;;8.57;;
83719;SDS011;73702;49.668;8.544;2024-03-22T05:56:55;31.02;;;8.93;;
83719;SDS011;73702;49.668;8.544;2024-03-22T05:59:21;26.02;;;8.57;;
83719;SDS011;73702;49.668;8.544;2024-03-22T06:01:47;29.52;;;8.25;;
83719;SDS011;73702;49.668;8.544;2024-03-22T06:04:12;30.30;;;8.82;;
83719;SDS011;73702;49.668;8.544;2024-03-22T06:06:37;34.85;;;8.73;;
83719;SDS011;73702;49.668;8.544;2024-03-22T06:09:03;27.08;;;8.75;;
83719;SDS011;73702;49.668;8.544;2024-03-22T06:11:29;34.30;;;8.60;;
83719;SDS011;73702;49.668;8.544;2024-03-22T06:13:55;24.65;;;8.32;;
83719;SDS011;73702;49.668;8.544;2024-03-22T06:16:20;27.25;;;8.45;;
83719;SDS011;73702;49.668;8.544;2024-03-22T06:18:46;33.95;;;9.68;;
83719;SDS011;73702;49.668;8.544;2024-03-22T06:21:11;25.17;;;8.77;;
83719;SDS011;73702;49.668;8.544;2024-03-22T06:23:37;35.65;;;8.90;;
83719;SDS011;73702;49.668;8.544;2024-03-22T06:26:02;24.67;;;8.00;;
83719;SDS011;73702;49.668;8.544;2024-03-22T06:28:27;29.23;;;9.07;;
83719;SDS011;73702;49.668;8.544;2024-03-22T06:30:53;22.10;;;7.78;;
83719;SDS011;73702;49.668;8.544;2024-03-22T06:33:18;28.15;;;8.20;;
83719;SDS011;73702;49.668;8.544;2024-03-22T06:35:44;34.60;;;9.27;;
83719;SDS011;73702;49.668;8.544;2024-03-22T06:38:09;22.30;;;8.23;;
83719;SDS011;73702;49.668;8.544;2024-03-22T06:40:34;34.92;;;8.73;;
83719;SDS011;73702;49.668;8.544;2024-03-22T06:43:00;27.67;;;8.55;;
83719;SDS011;73702;49.668;8.544;2024-03-22T06:45:25;25.10;;;8.20;;
83719;SDS011;73702;49.668;8.544;2024-03-22T06:47:51;24.88;;;8.18;;
83719;SDS011;73702;49.668;8.544;2024-03-22T06:50:16;28.25;;;9.10;;
83719;SDS011;73702;49.668;8.544;2024-03-22T06:52:42;31.63;;;8.75;;
83719;SDS011;73702;49.668;8.544;2024-03-22T06:55:07;30.58;;;8.55;;
83719;SDS011;73702;49.668;8.544;2024-03-22T06:57:33;25.10;;;8.48;;
83719;SDS011;73702;49.668;8.544;2024-03-22T06:59:58;22.67;;;7.88;;
83719;SDS011;73702;49.668;8.544;2024-03-22T07:02:23;21.00;;;7.10;;
83719;SDS011;73702;49.668;8.544;2024-03-22T07:04:49;34.45;;;8.65;;
83719;SDS011;73702;49.668;8.544;2024-03-22T07:07:14;24.02;;;6.90;;
83719;SDS011;73702;49.668;8.544;2024-03-22T07:09:40;25.30;;;7.80;;
83719;SDS011;73702;49.668;8.544;2024-03-22T07:12:05;26.15;;;8.05;;
83719;SDS011;73702;49.668;8.544;2024-03-22T07:14:30;26.67;;;7.88;;
83719;SDS011;73702;49.668;8.544;2024-03-22T07:16:56;25.52;;;8.07;;
83719;SDS011;73702;49.668;8.544;2024-03-22T07:19:21;28.77;;;9.10;;
83719;SDS011;73702;49.668;8.544;2024-03-22T07:21:47;30.15;;;11.15;;
83719;SDS011;73702;49.668;8.544;2024-03-22T07:24:13;21.73;;;8.55;;
83719;SDS011;73702;49.668;8.544;2024-03-22T07:26:38;32.85;;;10.60;;
83719;SDS011;73702;49.668;8.544;2024-03-22T07:29:03;29.10;;;9.55;;
83719;SDS011;73702;49.668;8.544;2024-03-22T07:31:29;28.65;;;7.78;;
83719;SDS011;73702;49.668;8.544;2024-03-22T07:33:54;32.92;;;8.90;;
83719;SDS011;73702;49.668;8.544;2024-03-22T07:36:19;26.45;;;8.32;;
83719;SDS011;73702;49.668;8.544;2024-03-22T07:38:45;34.72;;;10.07;;
83719;SDS011;73702;49.668;8.544;2024-03-22T07:41:10;31.17;;;9.35;;
83719;SDS011;73702;49.668;8.544;2024-03-22T07:43:36;29.15;;;9.90;;
83719;SDS011;73702;49.668;8.544;2024-03-22T07:46:01;22.33;;;8.77;;
83719;SDS011;73702;49.668;8.544;2024-03-22T07:48:26;34.13;;;10.13;;
83719;SDS011;73702;49.668;8.544;2024-03-22T07:50:58;30.17;;;9.57;;
83719;SDS011;73702;49.668;8.544;2024-03-22T07:53:24;26.55;;;8.65;;
83719;SDS011;73702;49.668;8.544;2024-03-22T07:55:49;36.42;;;8.95;;
83719;SDS011;73702;49.668;8.544;2024-03-22T07:58:15;23.10;;;7.82;;
83719;SDS011;73702;49.668;8.544;2024-03-22T08:00:40;27.90;;;8.15;;
83719;SDS011;73702;49.668;8.544;2024-03-22T08:03:05;25.83;;;8.23;;
83719;SDS011;73702;49.668;8.544;2024-03-22T08:05:31;23.65;;;7.65;;
83719;SDS011;73702;49.668;8.544;2024-03-22T08:07:56;28.42;;;7.50;;
83719;SDS011;73702;49.668;8.544;2024-03-22T08:10:21;31.70;;;8.30;;
83719;SDS011;73702;49.668;8.544;2024-03-22T08:12:47;27.52;;;8.23;;
83719;SDS011;73702;49.668;8.544;2024-03-22T08:15:12;20.67;;;7.72;;
83719;SDS011;73702;49.668;8.544;2024-03-22T08:17:38;24.65;;;7.38;;
83719;SDS011;73702;49.668;8.544;2024-03-22T08:20:03;21.42;;;7.07;;
83719;SDS011;73702;49.668;8.544;2024-03-22T08:22:29;27.00;;;7.28;;
83719;SDS011;73702;49.668;8.544;2024-03-22T08:24:54;25.30;;;7.40;;
83719;SDS011;73702;49.668;8.544;2024-03-22T08:27:19;29.25;;;7.68;;
83719;SDS011;73702;49.668;8.544;2024-03-22T08:29:45;31.48;;;7.80;;
83719;SDS011;73702;49.668;8.544;2024-03-22T08:32:10;22.92;;;7.65;;
83719;SDS011;73702;49.668;8.544;2024-03-22T08:34:35;27.30;;;7.65;;
83719;SDS011;73702;49.668;8.544;2024-03-22T08:37:01;23.55;;;7.32;;
83719;SDS011;73702;49.668;8.544;2024-03-22T08:39:26;28.58;;;9.02;;
83719;SDS011;73702;49.668;8.544;2024-03-22T08:41:52;31.58;;;7.68;;
83719;SDS011;73702;49.668;8.544;2024-03-22T08:44:17;23.25;;;7.47;;
83719;SDS011;73702;49.668;8.544;2024-03-22T08:46:42;24.55;;;7.25;;
83719;SDS011;73702;49.668;8.544;2024-03-22T08:49:08;26.15;;;7.90;;
83719;SDS011;73702;49.668;8.544;2024-03-22T08:51:33;19.77;;;6.80;;
83719;SDS011;73702;49.668;8.544;2024-03-22T08:53:59;26.23;;;7.30;;
83719;SDS011;73702;49.668;8.544;2024-03-22T08:56:24;18.65;;;6.45;;
83719;SDS011;73702;49.668;8.544;2024-03-22T08:58:49;33.55;;;7.78;;
83719;SDS011;73702;49.668;8.544;2024-03-22T09:01:15;24.60;;;7.63;;
83719;SDS011;73702;49.668;8.544;2024-03-22T09:03:40;26.10;;;8.07;;
83719;SDS011;73702;49.668;8.544;2024-03-22T09:06:06;23.27;;;7.80;;
83719;SDS011;73702;49.668;8.544;2024-03-22T09:08:31;21.25;;;7.38;;
83719;SDS011;73702;49.668;8.544;2024-03-22T09:10:56;36.28;;;8.45;;
83719;SDS011;73702;49.668;8.544;2024-03-22T09:13:22;24.55;;;7.20;;
83719;SDS011;73702;49.668;8.544;2024-03-22T09:15:47;28.30;;;7.90;;
83719;SDS011;73702;49.668;8.544;2024-03-22T09:18:13;24.05;;;7.60;;
83719;SDS011;73702;49.668;8.544;2024-03-22T09:20:38;23.27;;;8.13;;
83719;SDS011;73702;49.668;8.544;2024-03-22T09:23:03;34.47;;;8.15;;
83719;SDS011;73702;49.668;8.544;2024-03-22T09:25:29;21.17;;;7.57;;
83719;SDS011;73702;49.668;8.544;2024-03-22T09:27:54;33.60;;;8.68;;
83719;SDS011;73702;49.668;8.544;2024-03-22T09:30:19;28.73;;;7.47;;
83719;SDS011;73702;49.668;8.544;2024-03-22T09:32:45;25.60;;;7.30;;
83719;SDS011;73702;49.668;8.544;2024-03-22T09:35:10;25.98;;;7.97;;
83719;SDS011;73702;49.668;8.544;2024-03-22T09:37:36;26.77;;;7.93;;
83719;SDS011;73702;49.668;8.544;2024-03-22T09:40:01;31.48;;;8.13;;
83719;SDS011;73702;49.668;8.544;2024-03-22T09:42:26;29.35;;;8.82;;
83719;SDS011;73702;49.668;8.544;2024-03-22T09:44:53;26.98;;;7.78;;
83719;SDS011;73702;49.668;8.544;2024-03-22T09:47:18;26.88;;;7.75;;
83719;SDS011;73702;49.668;8.544;2024-03-22T09:49:44;20.65;;;6.45;;
83719;SDS011;73702;49.668;8.544;2024-03-22T09:52:09;22.67;;;6.30;;
83719;SDS011;73702;49.668;8.544;2024-03-22T09:54:36;26.75;;;7.00;;
83719;SDS011;73702;49.668;8.544;2024-03-22T09:57:03;30.45;;;7.72;;
83719;SDS011;73702;49.668;8.544;2024-03-22T09:59:28;21.00;;;6.65;;
83719;SDS011;73702;49.668;8.544;2024-03-22T10:01:54;32.30;;;6.85;;
83719;SDS011;73702;49.668;8.544;2024-03-22T10:04:19;24.70;;;6.10;;
83719;SDS011;73702;49.668;8.544;2024-03-22T10:06:46;24.13;;;6.47;;
83719;SDS011;73702;49.668;8.544;2024-03-22T10:09:12;16.73;;;5.55;;
83719;SDS011;73702;49.668;8.544;2024-03-22T10:11:37;27.58;;;6.15;;
83719;SDS011;73702;49.668;8.544;2024-03-22T10:14:02;27.52;;;6.00;;
83719;SDS011;73702;49.668;8.544;2024-03-22T10:16:32;21.02;;;5.18;;
83719;SDS011;73702;49.668;8.544;2024-03-22T10:18:57;32.08;;;6.40;;
83719;SDS011;73702;49.668;8.544;2024-03-22T10:21:23;26.65;;;6.22;;
83719;SDS011;73702;49.668;8.544;2024-03-22T10:23:48;19.10;;;5.22;;
83719;SDS011;73702;49.668;8.544;2024-03-22T10:26:13;18.83;;;4.57;;
83719;SDS011;73702;49.668;8.544;2024-03-22T10:28:45;22.52;;;5.10;;
83719;SDS011;73702;49.668;8.544;2024-03-22T10:31:11;26.55;;;5.75;;
83719;SDS011;73702;49.668;8.544;2024-03-22T10:33:37;22.80;;;5.20;;
83719;SDS011;73702;49.668;8.544;2024-03-22T10:36:03;20.48;;;5.35;;
83719;SDS011;73702;49.668;8.544;2024-03-22T10:38:29;19.45;;;5.10;;
83719;SDS011;73702;49.668;8.544;2024-03-22T10:40:55;19.70;;;5.03;;
83719;SDS011;73702;49.668;8.544;2024-03-22T10:43:21;23.20;;;5.00;;
83719;SDS011;73702;49.668;8.544;2024-03-22T10:45:47;20.92;;;5.18;;
83719;SDS011;73702;49.668;8.544;2024-03-22T10:48:13;23.73;;;5.50;;
83719;SDS011;73702;49.668;8.544;2024-03-22T10:50:40;17.25;;;4.95;;
83719;SDS011;73702;49.668;8.544;2024-03-22T10:53:06;20.27;;;5.10;;
83719;SDS011;73702;49.668;8.544;2024-03-22T10:55:39;21.35;;;5.22;;
83719;SDS011;73702;49.668;8.544;2024-03-22T10:58:06;25.70;;;5.85;;
83719;SDS011;73702;49.668;8.544;2024-03-22T11:00:33;21.25;;;4.68;;
83719;SDS011;73702;49.668;8.544;2024-03-22T11:02:59;13.90;;;3.97;;
83719;SDS011;73702;49.668;8.544;2024-03-22T11:05:25;24.77;;;4.88;;
83719;SDS011;73702;49.668;8.544;2024-03-22T11:08:01;23.33;;;5.10;;
83719;SDS011;73702;49.668;8.544;2024-03-22T11:10:31;16.40;;;4.30;;
83719;SDS011;73702;49.668;8.544;2024-03-22T11:13:00;20.77;;;4.10;;
83719;SDS011;73702;49.668;8.544;2024-03-22T11:15:26;19.55;;;4.50;;
83719;SDS011;73702;49.668;8.544;2024-03-22T11:17:53;15.93;;;4.28;;
83719;SDS011;73702;49.668;8.544;2024-03-22T11:20:18;26.08;;;5.13;;
83719;SDS011;73702;49.668;8.544;2024-03-22T11:22:43;20.27;;;4.53;;
83719;SDS011;73702;49.668;8.544;2024-03-22T11:25:09;25.10;;;4.72;;
83719;SDS011;73702;49.668;8.544;2024-03-22T11:27:34;19.08;;;5.15;;
83719;SDS011;73702;49.668;8.544;2024-03-22T11:30:00;19.38;;;4.65;;
83719;SDS011;73702;49.668;8.544;2024-03-22T11:32:25;19.80;;;4.03;;
83719;SDS011;73702;49.668;8.544;2024-03-22T11:34:50;17.83;;;4.55;;
83719;SDS011;73702;49.668;8.544;2024-03-22T11:37:16;26.13;;;5.82;;
83719;SDS011;73702;49.668;8.544;2024-03-22T11:39:41;21.25;;;4.90;;
83719;SDS011;73702;49.668;8.544;2024-03-22T11:42:07;24.95;;;5.13;;
83719;SDS011;73702;49.668;8.544;2024-03-22T11:44:33;22.27;;;5.18;;
83719;SDS011;73702;49.668;8.544;2024-03-22T11:47:01;20.52;;;4.78;;
83719;SDS011;73702;49.668;8.544;2024-03-22T11:49:27;22.13;;;4.72;;
83719;SDS011;73702;49.668;8.544;2024-03-22T11:51:52;22.58;;;4.72;;
83719;SDS011;73702;49.668;8.544;2024-03-22T11:54:20;26.55;;;4.88;;
83719;SDS011;73702;49.668;8.544;2024-03-22T11:56:46;18.92;;;4.25;;
83719;SDS011;73702;49.668;8.544;2024-03-22T11:59:11;21.20;;;4.60;;
83719;SDS011;73702;49.668;8.544;2024-03-22T12:01:37;18.67;;;4.30;;
83719;SDS011;73702;49.668;8.544;2024-03-22T12:04:02;17.75;;;4.82;;
83719;SDS011;73702;49.668;8.544;2024-03-22T12:06:28;16.42;;;4.43;;
83719;SDS011;73702;49.668;8.544;2024-03-22T12:08:53;15.60;;;4.15;;
83719;SDS011;73702;49.668;8.544;2024-03-22T12:11:18;21.23;;;4.95;;
83719;SDS011;73702;49.668;8.544;2024-03-22T12:13:44;15.43;;;4.47;;
83719;SDS011;73702;49.668;8.544;2024-03-22T12:16:09;24.02;;;5.25;;
83719;SDS011;73702;49.668;8.544;2024-03-22T12:18:35;25.85;;;5.20;;
83719;SDS011;73702;49.668;8.544;2024-03-22T12:21:00;17.88;;;4.80;;
83719;SDS011;73702;49.668;8.544;2024-03-22T12:23:26;18.48;;;4.00;;
83719;SDS011;73702;49.668;8.544;2024-03-22T12:25:51;21.45;;;5.15;;
83719;SDS011;73702;49.668;8.544;2024-03-22T12:28:17;19.58;;;4.45;;
83719;SDS011;73702;49.668;8.544;2024-03-22T12:30:42;16.85;;;4.47;;
83719;SDS011;73702;49.668;8.544;2024-03-22T12:33:08;27.30;;;5.30;;
83719;SDS011;73702;49.668;8.544;2024-03-22T12:35:33;17.38;;;4.30;;
83719;SDS011;73702;49.668;8.544;2024-03-22T12:37:59;19.92;;;4.40;;
83719;SDS011;73702;49.668;8.544;2024-03-22T12:40:24;16.02;;;4.43;;
83719;SDS011;73702;49.668;8.544;2024-03-22T12:42:50;15.38;;;3.88;;
83719;SDS011;73702;49.668;8.544;2024-03-22T12:45:15;19.75;;;4.80;;
83719;SDS011;73702;49.668;8.544;2024-03-22T12:47:40;21.08;;;4.75;;
83719;SDS011;73702;49.668;8.544;2024-03-22T12:50:06;18.95;;;4.28;;
83719;SDS011;73702;49.668;8.544;2024-03-22T12:52:31;16.55;;;4.03;;
83719;SDS011;73702;49.668;8.544;2024-03-22T12:54:56;24.85;;;5.13;;
83719;SDS011;73702;49.668;8.544;2024-03-22T12:57:22;24.13;;;5.43;;
83719;SDS011;73702;49.668;8.544;2024-03-22T12:59:47;22.33;;;4.95;;
83719;SDS011;73702;49.668;8.544;2024-03-22T13:02:13;19.20;;;4.05;;
83719;SDS011;73702;49.668;8.544;2024-03-22T13:04:38;19.92;;;5.05;;
83719;SDS011;73702;49.668;8.544;2024-03-22T13:07:03;21.27;;;4.90;;
83719;SDS011;73702;49.668;8.544;2024-03-22T13:09:29;18.98;;;4.88;;
83719;SDS011;73702;49.668;8.544;2024-03-22T13:11:54;28.25;;;5.75;;
83719;SDS011;73702;49.668;8.544;2024-03-22T13:14:19;22.92;;;5.70;;
83719;SDS011;73702;49.668;8.544;2024-03-22T13:16:45;17.63;;;5.05;;
83719;SDS011;73702;49.668;8.544;2024-03-22T13:19:11;21.13;;;5.30;;
83719;SDS011;73702;49.668;8.544;2024-03-22T13:21:36;20.35;;;4.63;;
83719;SDS011;73702;49.668;8.544;2024-03-22T13:24:02;18.30;;;4.50;;
83719;SDS011;73702;49.668;8.544;2024-03-22T13:26:27;29.40;;;6.57;;
83719;SDS011;73702;49.668;8.544;2024-03-22T13:28:52;20.13;;;4.75;;
83719;SDS011;73702;49.668;8.544;2024-03-22T13:31:18;25.15;;;4.80;;
83719;SDS011;73702;49.668;8.544;2024-03-22T13:33:43;20.55;;;4.10;;
83719;SDS011;73702;49.668;8.544;2024-03-22T13:36:08;21.67;;;5.03;;
83719;SDS011;73702;49.668;8.544;2024-03-22T13:38:34;17.85;;;4.88;;
83719;SDS011;73702;49.668;8.544;2024-03-22T13:40:59;18.45;;;4.22;;
83719;SDS011;73702;49.668;8.544;2024-03-22T13:43:25;27.42;;;5.97;;
83719;SDS011;73702;49.668;8.544;2024-03-22T13:45:51;20.33;;;5.22;;
83719;SDS011;73702;49.668;8.544;2024-03-22T13:48:16;24.83;;;4.93;;
83719;SDS011;73702;49.668;8.544;2024-03-22T13:50:42;17.88;;;4.65;;
83719;SDS011;73702;49.668;8.544;2024-03-22T13:53:07;20.85;;;5.28;;
83719;SDS011;73702;49.668;8.544;2024-03-22T13:55:33;16.42;;;5.13;;
83719;SDS011;73702;49.668;8.544;2024-03-22T13:57:58;13.48;;;4.55;;
83719;SDS011;73702;49.668;8.544;2024-03-22T14:00:23;23.08;;;5.20;;
83719;SDS011;73702;49.668;8.544;2024-03-22T14:02:49;22.70;;;5.90;;
83719;SDS011;73702;49.668;8.544;2024-03-22T14:05:14;24.20;;;4.90;;
83719;SDS011;73702;49.668;8.544;2024-03-22T14:07:39;16.58;;;4.20;;
83719;SDS011;73702;49.668;8.544;2024-03-22T14:10:05;23.20;;;5.80;;
83719;SDS011;73702;49.668;8.544;2024-03-22T14:12:30;24.35;;;5.72;;
83719;SDS011;73702;49.668;8.544;2024-03-22T14:14:56;17.48;;;4.68;;
83719;SDS011;73702;49.668;8.544;2024-03-22T14:17:21;37.65;;;6.47;;
83719;SDS011;73702;49.668;8.544;2024-03-22T14:19:46;19.88;;;4.97;;
83719;SDS011;73702;49.668;8.544;2024-03-22T14:22:12;21.02;;;5.40;;